Noblesville, Indiana
Current Conditions -  °F | °C
As of 8:35 AM on Saturday 25 Oct 2014 (Local Time) from KTYQ Reporting Station
Overcast Overcast  
Wind Chill: 55°   Ceiling: 2000
Heat Index: 55°   Visibility: 7mi
Dew Point: 50°   Wind: 3mph
Humidity: 83%   Direction: 250°WSW
Pressure: 29.97"   Gusts: NA
Location:  40.05°N, 86.01°W
Report Text: KTYQ 251235Z AUTO 25003KT 7SM BKN020 OVC027 13/10 A2997 RMK AO2 T01300102
Loading
Personal Weather Stations






























Interactive Weather Map
Tropical Storm Tracking
New forecast layout! Learn more

10-Day Weather Forecast

Advertisements
Track Severe Weather on mobile